createdAt,value
2022-08-25T00:02:36.566Z,86.14
2022-08-25T00:07:39.267Z,86.02
2022-08-25T00:12:42.539Z,86.11
2022-08-25T00:17:44.670Z,86.76
2022-08-25T00:22:46.615Z,86.98
2022-08-25T00:27:50.904Z,87.63
2022-08-25T00:32:57.226Z,87.69
2022-08-25T00:37:59.736Z,87.65
2022-08-25T00:43:04.149Z,87.23
2022-08-25T00:48:06.856Z,87.77
2022-08-25T00:53:08.999Z,88.15
2022-08-25T00:58:18.337Z,88.49
2022-08-25T01:03:21.482Z,89.06
2022-08-25T01:08:29.123Z,88.57
2022-08-25T01:13:38.128Z,89.07
2022-08-25T01:18:47.543Z,88.84
2022-08-25T01:23:52.150Z,88.78
2022-08-25T01:28:54.684Z,89.56
2022-08-25T01:33:57.972Z,89.10
2022-08-25T01:39:01.061Z,89.44
2022-08-25T01:44:05.858Z,89.98
2022-08-25T01:49:11.091Z,90.42
2022-08-25T01:54:14.391Z,90.45
2022-08-25T01:59:24.126Z,90.95
2022-08-25T02:04:26.536Z,90.37
2022-08-25T02:09:29.971Z,90.71
2022-08-25T02:14:32.477Z,91.13
2022-08-25T02:19:34.528Z,91.55
2022-08-25T02:24:37.799Z,91.10
2022-08-25T02:29:39.918Z,91.79
2022-08-25T02:34:42.121Z,92.13
2022-08-25T02:39:45.681Z,92.51
2022-08-25T02:44:47.421Z,92.60
2022-08-25T02:49:49.686Z,92.60
2022-08-25T02:54:52.967Z,92.38
2022-08-25T02:59:54.864Z,93.00
2022-08-25T03:04:56.998Z,92.77
2022-08-25T03:10:00.558Z,92.77
2022-08-25T03:15:02.858Z,92.91
2022-08-25T03:20:06.665Z,93.88
2022-08-25T03:25:10.866Z,93.42
2022-08-25T03:30:13.379Z,93.53
2022-08-25T03:35:15.703Z,93.88
2022-08-25T03:40:19.345Z,93.79
2022-08-25T03:45:21.548Z,93.90
2022-08-25T03:50:24.226Z,94.16
2022-08-25T03:55:28.603Z,94.95
2022-08-25T04:00:33.011Z,94.58
2022-08-25T04:05:34.719Z,95.00
2022-08-25T04:10:38.306Z,94.97
2022-08-25T04:15:42.481Z,94.86
2022-08-25T04:20:46.683Z,94.85
2022-08-25T04:25:50.041Z,95.22
2022-08-25T04:30:52.219Z,94.65
2022-08-25T04:35:54.383Z,93.95
2022-08-25T04:40:59.110Z,93.71
2022-08-25T04:46:05.771Z,93.20
2022-08-25T04:51:10.099Z,92.65
2022-08-25T04:56:15.838Z,92.98
2022-08-25T05:01:22.101Z,92.74
2022-08-25T05:06:24.736Z,92.82
2022-08-25T05:11:28.255Z,92.37
2022-08-25T05:16:30.759Z,90.25
2022-08-25T05:21:32.931Z,85.50
2022-08-25T05:26:38.530Z,79.25
2022-08-25T05:31:44.875Z,73.83
2022-08-25T05:36:49.631Z,69.47
2022-08-25T05:41:52.760Z,66.76
2022-08-25T05:46:54.503Z,64.57
2022-08-25T05:51:56.363Z,65.01
2022-08-25T05:56:59.561Z,67.77
2022-08-25T06:02:01.683Z,65.59
2022-08-25T06:07:03.413Z,66.04
2022-08-25T06:12:07.646Z,61.22
2022-08-25T06:17:10.648Z,63.40
2022-08-25T06:22:12.490Z,66.08
2022-08-25T06:27:15.582Z,70.68
2022-08-25T06:32:17.720Z,73.25
2022-08-25T06:37:24.615Z,74.80
2022-08-25T06:42:28.593Z,75.11
2022-08-25T06:47:30.710Z,76.06
2022-08-25T06:52:33.226Z,74.42
2022-08-25T06:57:36.368Z,75.32
2022-08-25T07:02:38.581Z,72.54
2022-08-25T07:07:43.640Z,71.60
2022-08-25T07:12:47.951Z,73.72
2022-08-25T07:17:50.333Z,75.97
2022-08-25T07:22:52.440Z,75.22
2022-08-25T07:27:58.857Z,73.59
2022-08-25T07:33:05.864Z,73.72
2022-08-25T07:38:09.062Z,73.24
2022-08-25T07:43:13.888Z,71.72
2022-08-25T07:48:17.768Z,75.53
2022-08-25T07:53:20.513Z,74.82
2022-08-25T07:58:26.160Z,74.26
2022-08-25T08:03:45.053Z,71.31
2022-08-25T08:08:48.796Z,72.43
2022-08-25T08:13:53.267Z,72.42
2022-08-25T08:18:56.145Z,73.48
2022-08-25T08:23:59.361Z,72.18
2022-08-25T08:29:02.807Z,71.39
2022-08-25T08:34:04.860Z,68.95
2022-08-25T08:39:07.066Z,67.90
2022-08-25T08:44:19.345Z,65.72
2022-08-25T08:49:28.524Z,68.73
2022-08-25T08:54:34.726Z,69.85
2022-08-25T08:59:49.575Z,66.97
2022-08-25T09:04:56.207Z,65.27
2022-08-25T09:09:58.257Z,63.34
2022-08-25T09:15:13.857Z,57.11
2022-08-25T09:20:34.459Z,55.20
2022-08-25T09:25:52.407Z,52.29
2022-08-25T09:31:01.132Z,51.33
2022-08-25T09:36:04.598Z,45.75
2022-08-25T09:41:08.889Z,52.35
2022-08-25T09:46:14.642Z,49.96
2022-08-25T09:51:20.305Z,53.43
2022-08-25T09:56:24.558Z,53.35
2022-08-25T10:01:29.289Z,46.26
2022-08-25T10:06:44.951Z,54.47
2022-08-25T10:11:48.037Z,47.30
2022-08-25T10:16:51.480Z,54.82
2022-08-25T10:22:05.816Z,58.63
2022-08-25T10:27:18.716Z,44.31
2022-08-25T10:32:33.414Z,43.22
2022-08-25T10:37:44.073Z,43.81
2022-08-25T10:42:56.617Z,50.89
2022-08-25T10:48:51.788Z,46.21
2022-08-25T10:54:02.242Z,51.55
2022-08-25T10:59:16.691Z,48.43
2022-08-25T11:04:25.283Z,49.12
2022-08-25T11:09:33.377Z,52.95
2022-08-25T11:14:42.814Z,50.45
2022-08-25T11:19:47.373Z,55.04
2022-08-25T11:25:02.048Z,58.33
2022-08-25T11:30:08.943Z,55.62
2022-08-25T11:35:13.890Z,54.25
2022-08-25T11:40:50.299Z,54.77
2022-08-25T11:46:06.293Z,56.59
2022-08-25T11:51:10.757Z,55.66
2022-08-25T11:56:34.682Z,56.16
2022-08-25T12:02:28.116Z,54.45
2022-08-25T12:07:51.008Z,56.50
2022-08-25T12:13:02.272Z,55.73
2022-08-25T12:18:12.932Z,50.92
2022-08-25T12:23:16.246Z,53.31
2022-08-25T12:28:37.541Z,53.61
2022-08-25T12:33:50.174Z,51.94
2022-08-25T12:38:52.558Z,55.16
2022-08-25T12:44:17.412Z,53.02
2022-08-25T12:49:32.451Z,53.75
2022-08-25T12:54:47.615Z,54.96
2022-08-25T12:59:54.921Z,54.03
2022-08-25T13:05:14.505Z,52.62
2022-08-25T13:10:32.744Z,54.48
2022-08-25T13:15:41.053Z,54.40
2022-08-25T13:20:44.063Z,52.45
2022-08-25T13:25:49.466Z,50.44
2022-08-25T13:31:05.525Z,51.60
2022-08-25T13:36:16.788Z,54.03
2022-08-25T13:41:28.752Z,51.80
2022-08-25T13:46:35.515Z,51.16
2022-08-25T13:51:39.499Z,49.48
2022-08-25T13:56:42.227Z,49.89
2022-08-25T14:01:50.082Z,51.70
2022-08-25T14:07:27.241Z,51.73
2022-08-25T14:12:40.043Z,52.28
2022-08-25T14:22:51.664Z,50.31
2022-08-25T14:28:13.500Z,50.28
2022-08-25T14:33:19.690Z,48.66
2022-08-25T14:38:23.155Z,47.34
2022-08-25T14:43:31.745Z,47.04
2022-08-25T14:48:42.730Z,48.76
2022-08-25T14:53:44.566Z,50.44
2022-08-25T14:58:50.820Z,50.77
2022-08-25T15:03:57.714Z,51.01
2022-08-25T15:08:59.915Z,49.39
2022-08-25T15:14:02.357Z,49.34
2022-08-25T15:19:07.125Z,46.26
2022-08-25T15:24:11.099Z,45.97
2022-08-25T15:29:14.081Z,48.77
2022-08-25T15:34:19.319Z,49.01
2022-08-25T15:39:21.183Z,48.51
2022-08-25T15:44:28.597Z,47.92
2022-08-25T15:49:32.959Z,49.39
2022-08-25T15:54:34.913Z,50.01
2022-08-25T15:59:40.976Z,49.11
2022-08-25T16:04:44.936Z,50.13
2022-08-25T16:09:47.336Z,51.35
2022-08-25T16:14:49.124Z,49.91
2022-08-25T16:19:55.254Z,50.27
2022-08-25T16:24:57.206Z,51.13
2022-08-25T16:30:00.242Z,50.64
2022-08-25T16:35:05.622Z,51.21
2022-08-25T16:40:13.510Z,50.93
2022-08-25T16:45:17.146Z,51.13
2022-08-25T16:50:20.521Z,51.24
2022-08-25T16:55:23.152Z,51.21
2022-08-25T17:00:28.231Z,50.89
2022-08-25T17:05:33.608Z,51.95
2022-08-25T17:10:38.258Z,52.84
2022-08-25T17:15:42.726Z,53.27
2022-08-25T17:20:46.911Z,54.29
2022-08-25T17:25:49.699Z,54.70
2022-08-25T17:30:51.413Z,55.54
2022-08-25T17:35:56.921Z,56.20
2022-08-25T17:41:01.474Z,57.07
2022-08-25T17:46:04.761Z,57.73
2022-08-25T17:51:09.457Z,58.46
2022-08-25T17:56:14.086Z,58.97
2022-08-25T18:01:19.007Z,60.41
2022-08-25T18:06:23.063Z,60.94
2022-08-25T18:11:25.050Z,61.20
2022-08-25T18:16:28.000Z,62.71
2022-08-25T18:21:31.881Z,63.12
2022-08-25T18:26:34.597Z,63.96
2022-08-25T18:31:36.668Z,64.81
2022-08-25T18:36:40.379Z,65.37
2022-08-25T18:41:44.960Z,66.53
2022-08-25T18:46:47.841Z,66.93
2022-08-25T18:51:51.443Z,68.12
2022-08-25T18:56:54.054Z,68.60
2022-08-25T19:01:56.779Z,69.99
2022-08-25T19:07:01.396Z,70.14
2022-08-25T19:12:04.504Z,70.76
2022-08-25T19:17:06.961Z,72.58
2022-08-25T19:22:31.672Z,72.95
2022-08-25T19:27:33.017Z,73.36
2022-08-25T19:32:35.448Z,73.95
2022-08-25T19:37:40.128Z,73.78
2022-08-25T19:42:42.251Z,74.34
2022-08-25T19:47:44.000Z,74.29
2022-08-25T19:52:49.821Z,74.89
2022-08-25T19:57:52.436Z,75.29
2022-08-25T20:02:55.542Z,75.86
2022-08-25T20:07:59.595Z,76.40
2022-08-25T20:13:01.857Z,77.01
2022-08-25T20:18:04.621Z,77.77
2022-08-25T20:23:08.364Z,78.45
2022-08-25T20:28:12.766Z,78.87
2022-08-25T20:33:22.947Z,79.06
2022-08-25T20:38:27.258Z,78.91
2022-08-25T20:43:28.954Z,78.84
2022-08-25T20:48:31.045Z,78.75
2022-08-25T20:53:37.104Z,79.17
2022-08-25T20:58:39.597Z,79.55
2022-08-25T21:03:42.927Z,79.97
2022-08-25T21:08:46.723Z,79.38
2022-08-25T21:13:48.593Z,79.25
2022-08-25T21:18:51.235Z,80.17
2022-08-25T21:23:55.166Z,80.29
2022-08-25T21:28:58.245Z,80.92
2022-08-25T21:34:00.937Z,79.88
2022-08-25T21:39:04.805Z,80.90
2022-08-25T21:44:07.605Z,80.85
2022-08-25T21:49:09.647Z,81.72
2022-08-25T21:54:16.077Z,82.21
2022-08-25T21:59:20.157Z,82.38
2022-08-25T22:04:22.741Z,82.57
2022-08-25T22:09:28.234Z,81.88
2022-08-25T22:14:30.613Z,82.85
2022-08-25T22:19:33.582Z,82.53
2022-08-25T22:24:37.218Z,82.44
2022-08-25T22:29:39.288Z,82.77
2022-08-25T22:34:43.638Z,83.06
2022-08-25T22:39:47.507Z,83.15
2022-08-25T22:44:50.104Z,83.03
2022-08-25T22:49:52.467Z,83.02
2022-08-25T22:54:55.664Z,83.15
2022-08-25T22:59:57.708Z,83.04
2022-08-25T23:05:00.796Z,83.44
2022-08-25T23:10:05.470Z,83.51
2022-08-25T23:15:09.932Z,83.37
2022-08-25T23:20:12.017Z,83.43
2022-08-25T23:25:15.684Z,83.02
2022-08-25T23:30:18.222Z,83.11
2022-08-25T23:35:20.217Z,82.99
2022-08-25T23:40:24.744Z,82.64
2022-08-25T23:45:27.235Z,83.04
2022-08-25T23:50:28.982Z,82.27
2022-08-25T23:55:34.091Z,82.04
